sensor_id;sensor_type;location;lat;lon;timestamp;P1;durP1;ratioP1;P2;durP2;ratioP2
8094;SDS011;4090;49.270;8.696;2024-01-06T00:01:26;11.05;;;5.40;;
8094;SDS011;4090;49.270;8.696;2024-01-06T00:04:09;13.35;;;5.72;;
8094;SDS011;4090;49.270;8.696;2024-01-06T00:06:51;13.48;;;5.43;;
8094;SDS011;4090;49.270;8.696;2024-01-06T00:09:34;11.02;;;4.28;;
8094;SDS011;4090;49.270;8.696;2024-01-06T00:12:15;9.43;;;4.50;;
8094;SDS011;4090;49.270;8.696;2024-01-06T00:14:58;6.60;;;2.47;;
8094;SDS011;4090;49.270;8.696;2024-01-06T00:17:40;4.20;;;2.38;;
8094;SDS011;4090;49.270;8.696;2024-01-06T00:20:23;7.30;;;2.50;;
8094;SDS011;4090;49.270;8.696;2024-01-06T00:23:05;2.97;;;2.20;;
8094;SDS011;4090;49.270;8.696;2024-01-06T00:25:47;6.07;;;2.30;;
8094;SDS011;4090;49.270;8.696;2024-01-06T00:28:29;6.30;;;2.38;;
8094;SDS011;4090;49.270;8.696;2024-01-06T00:31:11;8.57;;;2.15;;
8094;SDS011;4090;49.270;8.696;2024-01-06T00:33:53;4.60;;;2.13;;
8094;SDS011;4090;49.270;8.696;2024-01-06T00:36:36;4.25;;;1.80;;
8094;SDS011;4090;49.270;8.696;2024-01-06T00:39:19;1.73;;;1.33;;
8094;SDS011;4090;49.270;8.696;2024-01-06T00:42:01;4.75;;;1.75;;
8094;SDS011;4090;49.270;8.696;2024-01-06T00:44:43;3.72;;;1.80;;
8094;SDS011;4090;49.270;8.696;2024-01-06T00:47:26;7.32;;;1.77;;
8094;SDS011;4090;49.270;8.696;2024-01-06T00:50:08;4.82;;;1.88;;
8094;SDS011;4090;49.270;8.696;2024-01-06T00:52:51;5.28;;;1.88;;
8094;SDS011;4090;49.270;8.696;2024-01-06T00:55:33;1.10;;;1.00;;
8094;SDS011;4090;49.270;8.696;2024-01-06T00:58:15;3.47;;;1.90;;
8094;SDS011;4090;49.270;8.696;2024-01-06T01:00:57;6.85;;;1.80;;
8094;SDS011;4090;49.270;8.696;2024-01-06T01:03:38;3.72;;;1.52;;
8094;SDS011;4090;49.270;8.696;2024-01-06T01:06:21;4.82;;;1.63;;
8094;SDS011;4090;49.270;8.696;2024-01-06T01:09:04;2.60;;;1.20;;
8094;SDS011;4090;49.270;8.696;2024-01-06T01:11:46;3.75;;;1.65;;
8094;SDS011;4090;49.270;8.696;2024-01-06T01:14:28;2.00;;;1.50;;
8094;SDS011;4090;49.270;8.696;2024-01-06T01:17:09;4.65;;;1.67;;
8094;SDS011;4090;49.270;8.696;2024-01-06T01:19:51;6.20;;;2.35;;
8094;SDS011;4090;49.270;8.696;2024-01-06T01:22:33;3.22;;;1.45;;
8094;SDS011;4090;49.270;8.696;2024-01-06T01:25:17;2.67;;;1.45;;
8094;SDS011;4090;49.270;8.696;2024-01-06T01:27:58;4.07;;;2.05;;
8094;SDS011;4090;49.270;8.696;2024-01-06T01:30:41;3.55;;;1.73;;
8094;SDS011;4090;49.270;8.696;2024-01-06T01:33:22;2.97;;;1.77;;
8094;SDS011;4090;49.270;8.696;2024-01-06T01:36:04;2.45;;;1.80;;
8094;SDS011;4090;49.270;8.696;2024-01-06T01:38:46;3.40;;;1.85;;
8094;SDS011;4090;49.270;8.696;2024-01-06T01:41:30;2.60;;;1.90;;
8094;SDS011;4090;49.270;8.696;2024-01-06T01:44:11;7.43;;;2.10;;
8094;SDS011;4090;49.270;8.696;2024-01-06T01:46:53;6.40;;;2.45;;
8094;SDS011;4090;49.270;8.696;2024-01-06T01:49:35;6.57;;;2.30;;
8094;SDS011;4090;49.270;8.696;2024-01-06T01:52:17;3.58;;;1.80;;
8094;SDS011;4090;49.270;8.696;2024-01-06T01:54:59;5.30;;;2.13;;
8094;SDS011;4090;49.270;8.696;2024-01-06T01:57:42;3.40;;;1.83;;
8094;SDS011;4090;49.270;8.696;2024-01-06T02:00:24;7.25;;;1.90;;
8094;SDS011;4090;49.270;8.696;2024-01-06T02:03:08;5.97;;;2.05;;
8094;SDS011;4090;49.270;8.696;2024-01-06T02:05:52;2.65;;;1.63;;
8094;SDS011;4090;49.270;8.696;2024-01-06T02:08:34;4.85;;;1.92;;
8094;SDS011;4090;49.270;8.696;2024-01-06T02:11:16;3.53;;;1.83;;
8094;SDS011;4090;49.270;8.696;2024-01-06T02:13:59;3.35;;;1.90;;
8094;SDS011;4090;49.270;8.696;2024-01-06T02:16:41;5.10;;;1.65;;
8094;SDS011;4090;49.270;8.696;2024-01-06T02:19:22;11.25;;;2.00;;
8094;SDS011;4090;49.270;8.696;2024-01-06T02:22:06;6.60;;;2.00;;
8094;SDS011;4090;49.270;8.696;2024-01-06T02:24:48;6.10;;;2.05;;
8094;SDS011;4090;49.270;8.696;2024-01-06T02:27:30;3.35;;;1.90;;
8094;SDS011;4090;49.270;8.696;2024-01-06T02:30:12;5.65;;;2.45;;
8094;SDS011;4090;49.270;8.696;2024-01-06T02:32:54;5.68;;;1.98;;
8094;SDS011;4090;49.270;8.696;2024-01-06T02:35:35;5.35;;;2.45;;
8094;SDS011;4090;49.270;8.696;2024-01-06T02:38:19;4.95;;;2.53;;
8094;SDS011;4090;49.270;8.696;2024-01-06T02:41:00;4.65;;;2.10;;
8094;SDS011;4090;49.270;8.696;2024-01-06T02:43:42;3.90;;;2.20;;
8094;SDS011;4090;49.270;8.696;2024-01-06T02:46:24;5.53;;;2.40;;
8094;SDS011;4090;49.270;8.696;2024-01-06T02:49:07;2.85;;;1.83;;
8094;SDS011;4090;49.270;8.696;2024-01-06T02:51:49;6.47;;;2.08;;
8094;SDS011;4090;49.270;8.696;2024-01-06T02:54:32;4.03;;;2.13;;
8094;SDS011;4090;49.270;8.696;2024-01-06T02:57:14;2.50;;;2.05;;
8094;SDS011;4090;49.270;8.696;2024-01-06T02:59:56;4.70;;;2.33;;
8094;SDS011;4090;49.270;8.696;2024-01-06T03:02:38;6.65;;;2.35;;
8094;SDS011;4090;49.270;8.696;2024-01-06T03:05:22;4.93;;;2.55;;
8094;SDS011;4090;49.270;8.696;2024-01-06T03:08:04;4.03;;;2.30;;
8094;SDS011;4090;49.270;8.696;2024-01-06T03:10:48;6.43;;;2.05;;
8094;SDS011;4090;49.270;8.696;2024-01-06T03:13:30;2.25;;;1.70;;
8094;SDS011;4090;49.270;8.696;2024-01-06T03:16:12;3.08;;;2.05;;
8094;SDS011;4090;49.270;8.696;2024-01-06T03:18:54;4.78;;;2.30;;
8094;SDS011;4090;49.270;8.696;2024-01-06T03:21:35;6.32;;;2.22;;
8094;SDS011;4090;49.270;8.696;2024-01-06T03:24:17;4.38;;;2.35;;
8094;SDS011;4090;49.270;8.696;2024-01-06T03:27:01;7.15;;;2.10;;
8094;SDS011;4090;49.270;8.696;2024-01-06T03:29:42;7.65;;;1.98;;
8094;SDS011;4090;49.270;8.696;2024-01-06T03:32:24;3.97;;;2.30;;
8094;SDS011;4090;49.270;8.696;2024-01-06T03:35:06;6.65;;;2.00;;
8094;SDS011;4090;49.270;8.696;2024-01-06T03:37:48;3.20;;;1.90;;
8094;SDS011;4090;49.270;8.696;2024-01-06T03:40:30;4.45;;;1.98;;
8094;SDS011;4090;49.270;8.696;2024-01-06T03:43:13;3.28;;;2.58;;
8094;SDS011;4090;49.270;8.696;2024-01-06T03:45:55;6.00;;;2.95;;
8094;SDS011;4090;49.270;8.696;2024-01-06T03:48:38;4.60;;;2.28;;
8094;SDS011;4090;49.270;8.696;2024-01-06T03:51:20;2.90;;;1.92;;
8094;SDS011;4090;49.270;8.696;2024-01-06T03:54:02;2.58;;;2.10;;
8094;SDS011;4090;49.270;8.696;2024-01-06T03:56:44;3.72;;;2.08;;
8094;SDS011;4090;49.270;8.696;2024-01-06T03:59:27;5.40;;;1.90;;
8094;SDS011;4090;49.270;8.696;2024-01-06T04:02:09;5.47;;;2.22;;
8094;SDS011;4090;49.270;8.696;2024-01-06T04:04:50;5.47;;;2.30;;
8094;SDS011;4090;49.270;8.696;2024-01-06T04:07:32;2.65;;;2.20;;
8094;SDS011;4090;49.270;8.696;2024-01-06T04:10:14;3.55;;;2.30;;
8094;SDS011;4090;49.270;8.696;2024-01-06T04:12:56;3.13;;;1.88;;
8094;SDS011;4090;49.270;8.696;2024-01-06T04:15:39;2.65;;;1.85;;
8094;SDS011;4090;49.270;8.696;2024-01-06T04:18:21;4.32;;;1.85;;
8094;SDS011;4090;49.270;8.696;2024-01-06T04:21:03;4.35;;;1.85;;
8094;SDS011;4090;49.270;8.696;2024-01-06T04:23:45;2.40;;;1.60;;
8094;SDS011;4090;49.270;8.696;2024-01-06T04:26:27;7.95;;;2.08;;
8094;SDS011;4090;49.270;8.696;2024-01-06T04:29:09;2.40;;;1.48;;
8094;SDS011;4090;49.270;8.696;2024-01-06T04:31:52;5.68;;;2.15;;
8094;SDS011;4090;49.270;8.696;2024-01-06T04:34:34;4.95;;;1.70;;
8094;SDS011;4090;49.270;8.696;2024-01-06T04:37:16;2.53;;;1.60;;
8094;SDS011;4090;49.270;8.696;2024-01-06T04:39:57;2.55;;;1.80;;
8094;SDS011;4090;49.270;8.696;2024-01-06T04:42:40;2.75;;;1.83;;
8094;SDS011;4090;49.270;8.696;2024-01-06T04:45:22;8.18;;;1.73;;
8094;SDS011;4090;49.270;8.696;2024-01-06T04:48:06;9.15;;;1.83;;
8094;SDS011;4090;49.270;8.696;2024-01-06T04:50:48;4.15;;;1.80;;
8094;SDS011;4090;49.270;8.696;2024-01-06T04:53:30;4.38;;;1.70;;
8094;SDS011;4090;49.270;8.696;2024-01-06T04:56:13;2.65;;;1.83;;
8094;SDS011;4090;49.270;8.696;2024-01-06T04:58:54;2.40;;;1.70;;
8094;SDS011;4090;49.270;8.696;2024-01-06T05:01:37;4.38;;;1.90;;
8094;SDS011;4090;49.270;8.696;2024-01-06T05:04:20;2.65;;;1.63;;
8094;SDS011;4090;49.270;8.696;2024-01-06T05:07:03;4.90;;;1.50;;
8094;SDS011;4090;49.270;8.696;2024-01-06T05:09:44;2.33;;;1.60;;
8094;SDS011;4090;49.270;8.696;2024-01-06T05:12:26;3.15;;;1.85;;
8094;SDS011;4090;49.270;8.696;2024-01-06T05:15:09;7.65;;;2.20;;
8094;SDS011;4090;49.270;8.696;2024-01-06T05:17:51;3.63;;;1.70;;
8094;SDS011;4090;49.270;8.696;2024-01-06T05:20:34;3.42;;;1.95;;
8094;SDS011;4090;49.270;8.696;2024-01-06T05:23:16;3.70;;;1.60;;
8094;SDS011;4090;49.270;8.696;2024-01-06T05:25:57;5.03;;;1.85;;
8094;SDS011;4090;49.270;8.696;2024-01-06T05:28:39;4.90;;;1.73;;
8094;SDS011;4090;49.270;8.696;2024-01-06T05:31:21;3.25;;;2.35;;
8094;SDS011;4090;49.270;8.696;2024-01-06T05:34:03;3.90;;;2.10;;
8094;SDS011;4090;49.270;8.696;2024-01-06T05:36:47;2.10;;;1.75;;
8094;SDS011;4090;49.270;8.696;2024-01-06T05:39:28;1.50;;;1.40;;
8094;SDS011;4090;49.270;8.696;2024-01-06T05:42:10;3.70;;;2.15;;
8094;SDS011;4090;49.270;8.696;2024-01-06T05:44:55;2.00;;;1.35;;
8094;SDS011;4090;49.270;8.696;2024-01-06T05:47:36;3.47;;;1.58;;
8094;SDS011;4090;49.270;8.696;2024-01-06T05:50:18;2.60;;;1.63;;
8094;SDS011;4090;49.270;8.696;2024-01-06T05:53:01;2.55;;;1.88;;
8094;SDS011;4090;49.270;8.696;2024-01-06T05:55:43;6.65;;;1.80;;
8094;SDS011;4090;49.270;8.696;2024-01-06T05:58:25;9.63;;;1.75;;
8094;SDS011;4090;49.270;8.696;2024-01-06T06:01:07;10.13;;;2.20;;
8094;SDS011;4090;49.270;8.696;2024-01-06T06:03:49;6.18;;;1.90;;
8094;SDS011;4090;49.270;8.696;2024-01-06T06:06:31;4.70;;;2.08;;
8094;SDS011;4090;49.270;8.696;2024-01-06T06:09:14;2.45;;;1.55;;
8094;SDS011;4090;49.270;8.696;2024-01-06T06:11:56;5.65;;;2.05;;
8094;SDS011;4090;49.270;8.696;2024-01-06T06:14:38;4.82;;;2.03;;
8094;SDS011;4090;49.270;8.696;2024-01-06T06:17:20;9.43;;;2.10;;
8094;SDS011;4090;49.270;8.696;2024-01-06T06:20:01;5.93;;;1.90;;
8094;SDS011;4090;49.270;8.696;2024-01-06T06:22:44;5.63;;;2.30;;
8094;SDS011;4090;49.270;8.696;2024-01-06T06:25:27;3.92;;;2.22;;
8094;SDS011;4090;49.270;8.696;2024-01-06T06:28:09;5.43;;;2.65;;
8094;SDS011;4090;49.270;8.696;2024-01-06T06:30:50;6.57;;;2.38;;
8094;SDS011;4090;49.270;8.696;2024-01-06T06:33:32;4.57;;;2.30;;
8094;SDS011;4090;49.270;8.696;2024-01-06T06:36:14;6.72;;;2.22;;
8094;SDS011;4090;49.270;8.696;2024-01-06T06:38:56;4.60;;;2.05;;
8094;SDS011;4090;49.270;8.696;2024-01-06T06:41:40;7.97;;;2.33;;
8094;SDS011;4090;49.270;8.696;2024-01-06T06:44:22;9.32;;;2.20;;
8094;SDS011;4090;49.270;8.696;2024-01-06T06:47:04;5.95;;;2.42;;
8094;SDS011;4090;49.270;8.696;2024-01-06T06:49:46;5.85;;;2.17;;
8094;SDS011;4090;49.270;8.696;2024-01-06T06:52:27;7.35;;;2.72;;
8094;SDS011;4090;49.270;8.696;2024-01-06T06:55:09;6.70;;;2.17;;
8094;SDS011;4090;49.270;8.696;2024-01-06T06:57:53;6.95;;;2.65;;
8094;SDS011;4090;49.270;8.696;2024-01-06T07:00:34;5.15;;;2.40;;
8094;SDS011;4090;49.270;8.696;2024-01-06T07:03:17;2.85;;;2.17;;
8094;SDS011;4090;49.270;8.696;2024-01-06T07:05:59;14.02;;;2.33;;
8094;SDS011;4090;49.270;8.696;2024-01-06T07:08:41;8.60;;;2.47;;
8094;SDS011;4090;49.270;8.696;2024-01-06T07:11:23;2.65;;;2.10;;
8094;SDS011;4090;49.270;8.696;2024-01-06T07:14:06;5.15;;;2.15;;
8094;SDS011;4090;49.270;8.696;2024-01-06T07:16:48;6.53;;;2.58;;
8094;SDS011;4090;49.270;8.696;2024-01-06T07:19:30;5.43;;;2.17;;
8094;SDS011;4090;49.270;8.696;2024-01-06T07:22:12;5.55;;;2.35;;
8094;SDS011;4090;49.270;8.696;2024-01-06T07:24:56;3.65;;;2.10;;
8094;SDS011;4090;49.270;8.696;2024-01-06T07:27:38;6.35;;;2.30;;
8094;SDS011;4090;49.270;8.696;2024-01-06T07:30:21;4.65;;;2.08;;
8094;SDS011;4090;49.270;8.696;2024-01-06T07:33:03;6.00;;;2.30;;
8094;SDS011;4090;49.270;8.696;2024-01-06T07:35:45;5.40;;;2.00;;
8094;SDS011;4090;49.270;8.696;2024-01-06T07:38:27;2.72;;;2.30;;
8094;SDS011;4090;49.270;8.696;2024-01-06T07:41:11;4.78;;;2.47;;
8094;SDS011;4090;49.270;8.696;2024-01-06T07:43:53;7.82;;;2.65;;
8094;SDS011;4090;49.270;8.696;2024-01-06T07:46:36;4.28;;;2.50;;
8094;SDS011;4090;49.270;8.696;2024-01-06T07:49:19;8.27;;;2.65;;
8094;SDS011;4090;49.270;8.696;2024-01-06T07:52:01;3.58;;;2.05;;
8094;SDS011;4090;49.270;8.696;2024-01-06T07:54:43;4.32;;;2.35;;
8094;SDS011;4090;49.270;8.696;2024-01-06T07:57:25;7.32;;;2.65;;
8094;SDS011;4090;49.270;8.696;2024-01-06T08:00:07;5.88;;;2.92;;
8094;SDS011;4090;49.270;8.696;2024-01-06T08:02:54;6.65;;;2.20;;
8094;SDS011;4090;49.270;8.696;2024-01-06T08:05:36;5.15;;;2.10;;
8094;SDS011;4090;49.270;8.696;2024-01-06T08:08:18;4.95;;;2.42;;
8094;SDS011;4090;49.270;8.696;2024-01-06T08:11:00;4.95;;;2.58;;
8094;SDS011;4090;49.270;8.696;2024-01-06T08:13:41;8.50;;;2.78;;
8094;SDS011;4090;49.270;8.696;2024-01-06T08:16:24;6.53;;;2.63;;
8094;SDS011;4090;49.270;8.696;2024-01-06T08:19:07;3.75;;;2.70;;
8094;SDS011;4090;49.270;8.696;2024-01-06T08:21:49;6.53;;;3.05;;
8094;SDS011;4090;49.270;8.696;2024-01-06T08:24:30;4.88;;;2.65;;
8094;SDS011;4090;49.270;8.696;2024-01-06T08:27:12;4.70;;;2.30;;
8094;SDS011;4090;49.270;8.696;2024-01-06T08:29:54;7.97;;;2.53;;
8094;SDS011;4090;49.270;8.696;2024-01-06T08:32:36;5.93;;;2.30;;
8094;SDS011;4090;49.270;8.696;2024-01-06T08:35:19;5.22;;;2.53;;
8094;SDS011;4090;49.270;8.696;2024-01-06T08:38:01;7.65;;;2.60;;
8094;SDS011;4090;49.270;8.696;2024-01-06T08:40:43;7.50;;;2.53;;
8094;SDS011;4090;49.270;8.696;2024-01-06T08:43:28;5.40;;;2.35;;
8094;SDS011;4090;49.270;8.696;2024-01-06T08:46:10;6.15;;;2.70;;
8094;SDS011;4090;49.270;8.696;2024-01-06T08:48:52;4.53;;;2.28;;
8094;SDS011;4090;49.270;8.696;2024-01-06T08:51:35;6.20;;;2.65;;
8094;SDS011;4090;49.270;8.696;2024-01-06T08:54:16;8.57;;;2.78;;
8094;SDS011;4090;49.270;8.696;2024-01-06T08:56:58;5.30;;;2.80;;
8094;SDS011;4090;49.270;8.696;2024-01-06T08:59:40;5.55;;;2.47;;
8094;SDS011;4090;49.270;8.696;2024-01-06T09:02:22;4.30;;;2.22;;
8094;SDS011;4090;49.270;8.696;2024-01-06T09:05:04;5.13;;;2.42;;
8094;SDS011;4090;49.270;8.696;2024-01-06T09:07:48;5.95;;;2.47;;
8094;SDS011;4090;49.270;8.696;2024-01-06T09:10:30;4.22;;;2.47;;
8094;SDS011;4090;49.270;8.696;2024-01-06T09:13:12;4.20;;;2.38;;
8094;SDS011;4090;49.270;8.696;2024-01-06T09:15:54;4.60;;;2.85;;
8094;SDS011;4090;49.270;8.696;2024-01-06T09:18:36;8.80;;;2.65;;
8094;SDS011;4090;49.270;8.696;2024-01-06T09:21:18;4.25;;;2.85;;
8094;SDS011;4090;49.270;8.696;2024-01-06T09:24:01;6.30;;;2.88;;
8094;SDS011;4090;49.270;8.696;2024-01-06T09:26:46;4.03;;;2.45;;
8094;SDS011;4090;49.270;8.696;2024-01-06T09:29:30;4.75;;;2.90;;
8094;SDS011;4090;49.270;8.696;2024-01-06T09:32:12;4.53;;;2.33;;
8094;SDS011;4090;49.270;8.696;2024-01-06T09:34:54;4.97;;;2.67;;
8094;SDS011;4090;49.270;8.696;2024-01-06T09:37:36;5.60;;;2.83;;
8094;SDS011;4090;49.270;8.696;2024-01-06T09:40:20;3.67;;;2.53;;
8094;SDS011;4090;49.270;8.696;2024-01-06T09:43:03;5.07;;;2.90;;
8094;SDS011;4090;49.270;8.696;2024-01-06T09:45:45;6.05;;;2.40;;
8094;SDS011;4090;49.270;8.696;2024-01-06T09:48:35;4.80;;;2.85;;
8094;SDS011;4090;49.270;8.696;2024-01-06T09:51:22;6.20;;;2.78;;
8094;SDS011;4090;49.270;8.696;2024-01-06T09:54:04;6.85;;;2.60;;
8094;SDS011;4090;49.270;8.696;2024-01-06T09:56:50;7.25;;;2.80;;
8094;SDS011;4090;49.270;8.696;2024-01-06T09:59:32;3.15;;;2.25;;
8094;SDS011;4090;49.270;8.696;2024-01-06T10:02:17;6.68;;;3.83;;
8094;SDS011;4090;49.270;8.696;2024-01-06T10:05:00;4.13;;;2.70;;
8094;SDS011;4090;49.270;8.696;2024-01-06T10:07:42;4.45;;;2.63;;
8094;SDS011;4090;49.270;8.696;2024-01-06T10:10:25;5.53;;;3.22;;
8094;SDS011;4090;49.270;8.696;2024-01-06T10:13:09;4.80;;;2.42;;
8094;SDS011;4090;49.270;8.696;2024-01-06T10:15:51;6.13;;;2.72;;
8094;SDS011;4090;49.270;8.696;2024-01-06T10:18:33;4.55;;;2.85;;
8094;SDS011;4090;49.270;8.696;2024-01-06T10:21:16;5.40;;;2.78;;
8094;SDS011;4090;49.270;8.696;2024-01-06T10:24:00;5.35;;;2.90;;
8094;SDS011;4090;49.270;8.696;2024-01-06T10:26:42;5.18;;;2.90;;
8094;SDS011;4090;49.270;8.696;2024-01-06T10:29:25;5.15;;;2.70;;
8094;SDS011;4090;49.270;8.696;2024-01-06T10:32:08;6.38;;;3.05;;
8094;SDS011;4090;49.270;8.696;2024-01-06T10:34:49;5.15;;;3.17;;
8094;SDS011;4090;49.270;8.696;2024-01-06T10:37:31;7.00;;;3.97;;
8094;SDS011;4090;49.270;8.696;2024-01-06T10:40:14;6.03;;;3.03;;
8094;SDS011;4090;49.270;8.696;2024-01-06T10:42:57;5.43;;;2.85;;
8094;SDS011;4090;49.270;8.696;2024-01-06T10:45:41;5.75;;;3.17;;
8094;SDS011;4090;49.270;8.696;2024-01-06T10:48:24;6.43;;;3.20;;
8094;SDS011;4090;49.270;8.696;2024-01-06T10:51:06;6.93;;;3.40;;
8094;SDS011;4090;49.270;8.696;2024-01-06T10:53:48;9.35;;;3.50;;
8094;SDS011;4090;49.270;8.696;2024-01-06T10:56:33;6.65;;;3.10;;
8094;SDS011;4090;49.270;8.696;2024-01-06T10:59:18;7.93;;;3.47;;
8094;SDS011;4090;49.270;8.696;2024-01-06T11:02:06;3.05;;;2.60;;
8094;SDS011;4090;49.270;8.696;2024-01-06T11:04:49;5.03;;;3.25;;
8094;SDS011;4090;49.270;8.696;2024-01-06T11:07:31;8.05;;;3.70;;
8094;SDS011;4090;49.270;8.696;2024-01-06T11:10:14;15.90;;;6.03;;
8094;SDS011;4090;49.270;8.696;2024-01-06T11:13:08;15.30;;;5.65;;
8094;SDS011;4090;49.270;8.696;2024-01-06T11:15:52;12.63;;;5.22;;
8094;SDS011;4090;49.270;8.696;2024-01-06T11:18:36;11.25;;;4.30;;
8094;SDS011;4090;49.270;8.696;2024-01-06T11:21:19;7.22;;;3.47;;
8094;SDS011;4090;49.270;8.696;2024-01-06T11:24:16;4.78;;;3.38;;
8094;SDS011;4090;49.270;8.696;2024-01-06T11:27:01;8.90;;;3.65;;
8094;SDS011;4090;49.270;8.696;2024-01-06T11:29:44;6.68;;;3.63;;
8094;SDS011;4090;49.270;8.696;2024-01-06T11:32:27;5.82;;;3.13;;
8094;SDS011;4090;49.270;8.696;2024-01-06T11:35:12;8.63;;;3.75;;
8094;SDS011;4090;49.270;8.696;2024-01-06T11:37:55;10.20;;;3.17;;
8094;SDS011;4090;49.270;8.696;2024-01-06T11:40:38;5.22;;;3.17;;
8094;SDS011;4090;49.270;8.696;2024-01-06T11:43:20;6.93;;;3.30;;
8094;SDS011;4090;49.270;8.696;2024-01-06T11:46:08;5.72;;;2.95;;
8094;SDS011;4090;49.270;8.696;2024-01-06T11:48:50;6.95;;;3.47;;
8094;SDS011;4090;49.270;8.696;2024-01-06T11:51:35;4.22;;;3.17;;
8094;SDS011;4090;49.270;8.696;2024-01-06T11:54:17;7.78;;;3.50;;
8094;SDS011;4090;49.270;8.696;2024-01-06T11:56:59;5.22;;;3.13;;
8094;SDS011;4090;49.270;8.696;2024-01-06T11:59:41;5.50;;;3.40;;
8094;SDS011;4090;49.270;8.696;2024-01-06T12:02:22;6.75;;;3.17;;
8094;SDS011;4090;49.270;8.696;2024-01-06T12:05:04;4.10;;;3.28;;
8094;SDS011;4090;49.270;8.696;2024-01-06T12:07:54;6.03;;;3.90;;
8094;SDS011;4090;49.270;8.696;2024-01-06T12:10:36;5.38;;;3.05;;
8094;SDS011;4090;49.270;8.696;2024-01-06T12:13:18;6.40;;;3.58;;
8094;SDS011;4090;49.270;8.696;2024-01-06T12:16:00;6.88;;;3.67;;
8094;SDS011;4090;49.270;8.696;2024-01-06T12:18:42;6.30;;;3.50;;
8094;SDS011;4090;49.270;8.696;2024-01-06T12:21:24;7.03;;;3.42;;
8094;SDS011;4090;49.270;8.696;2024-01-06T12:24:15;6.28;;;4.03;;
8094;SDS011;4090;49.270;8.696;2024-01-06T12:26:58;5.30;;;3.45;;
8094;SDS011;4090;49.270;8.696;2024-01-06T12:29:40;7.53;;;3.33;;
8094;SDS011;4090;49.270;8.696;2024-01-06T12:32:22;4.53;;;3.00;;
8094;SDS011;4090;49.270;8.696;2024-01-06T12:35:05;6.53;;;3.10;;
8094;SDS011;4090;49.270;8.696;2024-01-06T12:37:48;3.78;;;2.92;;
8094;SDS011;4090;49.270;8.696;2024-01-06T12:40:31;9.23;;;3.85;;
8094;SDS011;4090;49.270;8.696;2024-01-06T12:43:13;6.45;;;3.60;;
8094;SDS011;4090;49.270;8.696;2024-01-06T12:45:55;6.82;;;3.05;;
8094;SDS011;4090;49.270;8.696;2024-01-06T12:48:38;5.10;;;3.17;;
8094;SDS011;4090;49.270;8.696;2024-01-06T12:51:20;5.43;;;3.63;;
8094;SDS011;4090;49.270;8.696;2024-01-06T12:54:02;4.38;;;2.90;;
8094;SDS011;4090;49.270;8.696;2024-01-06T12:56:45;5.75;;;3.40;;
8094;SDS011;4090;49.270;8.696;2024-01-06T12:59:27;6.63;;;3.42;;
8094;SDS011;4090;49.270;8.696;2024-01-06T13:02:10;10.57;;;4.10;;
8094;SDS011;4090;49.270;8.696;2024-01-06T13:04:52;7.32;;;3.58;;
8094;SDS011;4090;49.270;8.696;2024-01-06T13:07:35;5.25;;;3.65;;
8094;SDS011;4090;49.270;8.696;2024-01-06T13:10:17;8.23;;;3.92;;
8094;SDS011;4090;49.270;8.696;2024-01-06T13:13:01;4.43;;;3.17;;
8094;SDS011;4090;49.270;8.696;2024-01-06T13:15:43;7.90;;;3.83;;
8094;SDS011;4090;49.270;8.696;2024-01-06T13:18:26;7.65;;;4.10;;
8094;SDS011;4090;49.270;8.696;2024-01-06T13:21:08;6.55;;;3.88;;
8094;SDS011;4090;49.270;8.696;2024-01-06T13:23:50;9.35;;;3.85;;
8094;SDS011;4090;49.270;8.696;2024-01-06T13:26:32;7.20;;;4.15;;
8094;SDS011;4090;49.270;8.696;2024-01-06T13:29:15;5.70;;;3.53;;
8094;SDS011;4090;49.270;8.696;2024-01-06T13:31:58;7.60;;;4.25;;
8094;SDS011;4090;49.270;8.696;2024-01-06T13:34:40;7.93;;;4.00;;
8094;SDS011;4090;49.270;8.696;2024-01-06T13:37:22;6.30;;;3.92;;
8094;SDS011;4090;49.270;8.696;2024-01-06T13:40:05;6.45;;;3.80;;
8094;SDS011;4090;49.270;8.696;2024-01-06T13:42:48;9.00;;;4.50;;
8094;SDS011;4090;49.270;8.696;2024-01-06T13:45:33;6.88;;;4.00;;
8094;SDS011;4090;49.270;8.696;2024-01-06T13:48:15;7.63;;;3.88;;
8094;SDS011;4090;49.270;8.696;2024-01-06T13:50:56;5.97;;;3.67;;
8094;SDS011;4090;49.270;8.696;2024-01-06T13:53:38;6.90;;;3.60;;
8094;SDS011;4090;49.270;8.696;2024-01-06T13:56:20;14.35;;;5.55;;
8094;SDS011;4090;49.270;8.696;2024-01-06T13:59:03;14.77;;;7.13;;
8094;SDS011;4090;49.270;8.696;2024-01-06T14:01:46;6.05;;;4.03;;
8094;SDS011;4090;49.270;8.696;2024-01-06T14:04:28;6.68;;;4.32;;
8094;SDS011;4090;49.270;8.696;2024-01-06T14:07:10;7.18;;;3.80;;
8094;SDS011;4090;49.270;8.696;2024-01-06T14:09:52;6.70;;;4.03;;
8094;SDS011;4090;49.270;8.696;2024-01-06T14:12:34;7.40;;;4.00;;
8094;SDS011;4090;49.270;8.696;2024-01-06T14:15:16;7.60;;;4.55;;
8094;SDS011;4090;49.270;8.696;2024-01-06T14:17:59;6.90;;;3.95;;
8094;SDS011;4090;49.270;8.696;2024-01-06T14:20:41;11.60;;;4.30;;
8094;SDS011;4090;49.270;8.696;2024-01-06T14:23:23;10.70;;;4.30;;
8094;SDS011;4090;49.270;8.696;2024-01-06T14:26:05;8.90;;;4.75;;
8094;SDS011;4090;49.270;8.696;2024-01-06T14:28:47;8.85;;;4.53;;
8094;SDS011;4090;49.270;8.696;2024-01-06T14:31:29;6.05;;;4.20;;
8094;SDS011;4090;49.270;8.696;2024-01-06T14:34:12;5.88;;;4.10;;
8094;SDS011;4090;49.270;8.696;2024-01-06T14:36:54;6.72;;;4.28;;
8094;SDS011;4090;49.270;8.696;2024-01-06T14:39:36;9.38;;;4.65;;
8094;SDS011;4090;49.270;8.696;2024-01-06T14:42:17;8.70;;;4.63;;
8094;SDS011;4090;49.270;8.696;2024-01-06T14:45:00;6.43;;;4.30;;
8094;SDS011;4090;49.270;8.696;2024-01-06T14:47:43;10.10;;;5.13;;
8094;SDS011;4090;49.270;8.696;2024-01-06T14:50:26;7.95;;;5.00;;
8094;SDS011;4090;49.270;8.696;2024-01-06T14:53:08;7.25;;;4.55;;
8094;SDS011;4090;49.270;8.696;2024-01-06T14:55:50;8.57;;;4.82;;
8094;SDS011;4090;49.270;8.696;2024-01-06T14:58:33;7.72;;;5.00;;
8094;SDS011;4090;49.270;8.696;2024-01-06T15:01:15;9.77;;;5.03;;
8094;SDS011;4090;49.270;8.696;2024-01-06T15:03:57;8.60;;;4.68;;
8094;SDS011;4090;49.270;8.696;2024-01-06T15:06:40;10.15;;;5.32;;
8094;SDS011;4090;49.270;8.696;2024-01-06T15:09:23;8.45;;;5.15;;
8094;SDS011;4090;49.270;8.696;2024-01-06T15:12:06;8.48;;;5.10;;
8094;SDS011;4090;49.270;8.696;2024-01-06T15:14:48;9.63;;;5.50;;
8094;SDS011;4090;49.270;8.696;2024-01-06T15:17:30;9.10;;;5.00;;
8094;SDS011;4090;49.270;8.696;2024-01-06T15:20:12;12.30;;;5.07;;
8094;SDS011;4090;49.270;8.696;2024-01-06T15:22:55;9.02;;;5.50;;
8094;SDS011;4090;49.270;8.696;2024-01-06T15:25:37;7.35;;;4.63;;
8094;SDS011;4090;49.270;8.696;2024-01-06T15:28:19;9.15;;;5.57;;
8094;SDS011;4090;49.270;8.696;2024-01-06T15:31:01;10.25;;;5.53;;
8094;SDS011;4090;49.270;8.696;2024-01-06T15:33:43;10.10;;;5.57;;
8094;SDS011;4090;49.270;8.696;2024-01-06T15:36:27;13.30;;;5.97;;
8094;SDS011;4090;49.270;8.696;2024-01-06T15:39:11;10.27;;;5.72;;
8094;SDS011;4090;49.270;8.696;2024-01-06T15:41:54;8.18;;;5.57;;
8094;SDS011;4090;49.270;8.696;2024-01-06T15:44:35;10.50;;;5.78;;
8094;SDS011;4090;49.270;8.696;2024-01-06T15:47:19;10.02;;;5.72;;
8094;SDS011;4090;49.270;8.696;2024-01-06T15:50:01;14.25;;;6.10;;
8094;SDS011;4090;49.270;8.696;2024-01-06T15:52:43;12.13;;;7.13;;
8094;SDS011;4090;49.270;8.696;2024-01-06T15:55:28;13.48;;;6.82;;
8094;SDS011;4090;49.270;8.696;2024-01-06T15:58:10;10.40;;;5.95;;
8094;SDS011;4090;49.270;8.696;2024-01-06T16:00:51;12.38;;;7.18;;
8094;SDS011;4090;49.270;8.696;2024-01-06T16:03:33;11.60;;;6.75;;
8094;SDS011;4090;49.270;8.696;2024-01-06T16:06:15;12.43;;;7.13;;
8094;SDS011;4090;49.270;8.696;2024-01-06T16:08:57;10.57;;;6.25;;
8094;SDS011;4090;49.270;8.696;2024-01-06T16:11:40;12.18;;;6.80;;
8094;SDS011;4090;49.270;8.696;2024-01-06T16:14:22;11.45;;;6.28;;
8094;SDS011;4090;49.270;8.696;2024-01-06T16:17:05;10.90;;;5.57;;
8094;SDS011;4090;49.270;8.696;2024-01-06T16:19:48;8.80;;;5.38;;
8094;SDS011;4090;49.270;8.696;2024-01-06T16:22:29;9.90;;;5.00;;
8094;SDS011;4090;49.270;8.696;2024-01-06T16:25:11;8.68;;;5.03;;
8094;SDS011;4090;49.270;8.696;2024-01-06T16:27:55;9.18;;;5.32;;
8094;SDS011;4090;49.270;8.696;2024-01-06T16:30:37;10.52;;;5.85;;
8094;SDS011;4090;49.270;8.696;2024-01-06T16:33:19;10.43;;;5.68;;
8094;SDS011;4090;49.270;8.696;2024-01-06T16:36:01;8.27;;;5.47;;
8094;SDS011;4090;49.270;8.696;2024-01-06T16:38:44;12.18;;;6.03;;
8094;SDS011;4090;49.270;8.696;2024-01-06T16:41:26;11.85;;;6.35;;
8094;SDS011;4090;49.270;8.696;2024-01-06T16:44:10;11.27;;;6.07;;
8094;SDS011;4090;49.270;8.696;2024-01-06T16:46:52;13.45;;;7.15;;
8094;SDS011;4090;49.270;8.696;2024-01-06T16:49:37;13.75;;;7.30;;